Terminal Aerodrome Forecast
Issued by NWS

Current Version | Previous Version | Text Only | Print | Product List | Glossary On
Versions: 1 2 3 4 5 6 7 8 9 10 11 12 13 14
351
FTUS44 KTSA 171920 AAA
TAFBVO
TAF AMD
KBVO 171920Z 1719/1818 18015G26KT P6SM SCT035 BKN150
     FM172300 22012G21KT P6SM SCT150
     FM181000 29013G22KT P6SM SCT250
     FM181300 34025G35KT P6SM BKN030=

USA.gov is the U.S. government's official web portal to all federal, state and local government web resources and services.